sensor_id;sensor_type;location;lat;lon;timestamp;P1;durP1;ratioP1;P2;durP2;ratioP2
20497;SDS011;10407;53.238;10.448;2023-02-16T00:02:09;100.20;;;19.10;;
20497;SDS011;10407;53.238;10.448;2023-02-16T00:04:37;98.70;;;17.50;;
20497;SDS011;10407;53.238;10.448;2023-02-16T00:07:04;104.00;;;19.23;;
20497;SDS011;10407;53.238;10.448;2023-02-16T00:09:31;100.13;;;18.43;;
20497;SDS011;10407;53.238;10.448;2023-02-16T00:11:59;103.10;;;18.90;;
20497;SDS011;10407;53.238;10.448;2023-02-16T00:14:44;99.10;;;18.77;;
20497;SDS011;10407;53.238;10.448;2023-02-16T00:17:12;95.33;;;18.00;;
20497;SDS011;10407;53.238;10.448;2023-02-16T00:19:40;98.73;;;16.63;;
20497;SDS011;10407;53.238;10.448;2023-02-16T00:22:07;96.83;;;17.00;;
20497;SDS011;10407;53.238;10.448;2023-02-16T00:24:36;100.30;;;18.80;;
20497;SDS011;10407;53.238;10.448;2023-02-16T00:27:08;101.27;;;19.73;;
20497;SDS011;10407;53.238;10.448;2023-02-16T00:29:36;97.97;;;18.87;;
20497;SDS011;10407;53.238;10.448;2023-02-16T00:32:04;101.07;;;19.07;;
20497;SDS011;10407;53.238;10.448;2023-02-16T00:34:32;95.30;;;17.10;;
20497;SDS011;10407;53.238;10.448;2023-02-16T00:37:05;94.90;;;17.40;;
20497;SDS011;10407;53.238;10.448;2023-02-16T00:39:35;97.23;;;19.30;;
20497;SDS011;10407;53.238;10.448;2023-02-16T00:42:05;97.30;;;18.30;;
20497;SDS011;10407;53.238;10.448;2023-02-16T00:44:44;96.13;;;18.20;;
20497;SDS011;10407;53.238;10.448;2023-02-16T00:47:21;100.27;;;19.37;;
20497;SDS011;10407;53.238;10.448;2023-02-16T00:50:13;104.97;;;20.30;;
20497;SDS011;10407;53.238;10.448;2023-02-16T00:52:42;98.07;;;18.10;;
20497;SDS011;10407;53.238;10.448;2023-02-16T00:55:15;98.77;;;18.73;;
20497;SDS011;10407;53.238;10.448;2023-02-16T00:57:46;103.37;;;19.27;;
20497;SDS011;10407;53.238;10.448;2023-02-16T01:02:55;104.30;;;20.20;;
20497;SDS011;10407;53.238;10.448;2023-02-16T01:05:25;106.10;;;20.90;;
20497;SDS011;10407;53.238;10.448;2023-02-16T01:07:53;105.50;;;20.07;;
20497;SDS011;10407;53.238;10.448;2023-02-16T01:10:38;102.93;;;20.27;;
20497;SDS011;10407;53.238;10.448;2023-02-16T01:13:25;109.90;;;20.83;;
20497;SDS011;10407;53.238;10.448;2023-02-16T01:15:55;99.80;;;19.00;;
20497;SDS011;10407;53.238;10.448;2023-02-16T01:18:22;107.33;;;19.80;;
20497;SDS011;10407;53.238;10.448;2023-02-16T01:20:51;100.00;;;20.63;;
20497;SDS011;10407;53.238;10.448;2023-02-16T01:23:18;100.90;;;20.60;;
20497;SDS011;10407;53.238;10.448;2023-02-16T01:25:46;103.67;;;19.90;;
20497;SDS011;10407;53.238;10.448;2023-02-16T01:28:22;108.83;;;20.67;;
20497;SDS011;10407;53.238;10.448;2023-02-16T01:30:48;106.43;;;19.90;;
20497;SDS011;10407;53.238;10.448;2023-02-16T01:33:16;102.50;;;19.10;;
20497;SDS011;10407;53.238;10.448;2023-02-16T01:35:44;106.83;;;21.77;;
20497;SDS011;10407;53.238;10.448;2023-02-16T01:38:19;104.90;;;21.13;;
20497;SDS011;10407;53.238;10.448;2023-02-16T01:40:50;103.63;;;19.73;;
20497;SDS011;10407;53.238;10.448;2023-02-16T01:43:23;108.77;;;20.67;;
20497;SDS011;10407;53.238;10.448;2023-02-16T01:46:06;107.93;;;19.37;;
20497;SDS011;10407;53.238;10.448;2023-02-16T01:48:33;98.83;;;19.40;;
20497;SDS011;10407;53.238;10.448;2023-02-16T01:51:05;106.10;;;20.10;;
20497;SDS011;10407;53.238;10.448;2023-02-16T01:53:36;104.07;;;20.20;;
20497;SDS011;10407;53.238;10.448;2023-02-16T01:56:05;103.63;;;20.20;;
20497;SDS011;10407;53.238;10.448;2023-02-16T01:58:37;103.83;;;21.13;;
20497;SDS011;10407;53.238;10.448;2023-02-16T02:04:00;103.83;;;21.63;;
20497;SDS011;10407;53.238;10.448;2023-02-16T02:06:46;97.77;;;18.60;;
20497;SDS011;10407;53.238;10.448;2023-02-16T02:09:19;109.03;;;22.27;;
20497;SDS011;10407;53.238;10.448;2023-02-16T02:14:36;100.70;;;20.03;;
20497;SDS011;10407;53.238;10.448;2023-02-16T02:17:07;110.83;;;23.07;;
20497;SDS011;10407;53.238;10.448;2023-02-16T02:19:44;103.77;;;19.63;;
20497;SDS011;10407;53.238;10.448;2023-02-16T02:28:21;98.57;;;19.40;;
20497;SDS011;10407;53.238;10.448;2023-02-16T02:30:48;105.93;;;21.03;;
20497;SDS011;10407;53.238;10.448;2023-02-16T02:33:32;103.60;;;20.90;;
20497;SDS011;10407;53.238;10.448;2023-02-16T02:44:49;101.03;;;20.00;;
20497;SDS011;10407;53.238;10.448;2023-02-16T02:47:06;103.50;;;20.67;;
20497;SDS011;10407;53.238;10.448;2023-02-16T02:49:34;105.00;;;20.60;;
20497;SDS011;10407;53.238;10.448;2023-02-16T02:52:02;103.07;;;20.07;;
20497;SDS011;10407;53.238;10.448;2023-02-16T02:54:33;113.80;;;21.73;;
20497;SDS011;10407;53.238;10.448;2023-02-16T03:00:26;101.40;;;20.00;;
20497;SDS011;10407;53.238;10.448;2023-02-16T03:03:10;103.40;;;21.87;;
20497;SDS011;10407;53.238;10.448;2023-02-16T03:06:04;108.90;;;22.40;;
20497;SDS011;10407;53.238;10.448;2023-02-16T03:08:35;102.40;;;20.63;;
20497;SDS011;10407;53.238;10.448;2023-02-16T03:11:09;106.77;;;22.03;;
20497;SDS011;10407;53.238;10.448;2023-02-16T03:14:00;103.57;;;20.70;;
20497;SDS011;10407;53.238;10.448;2023-02-16T03:16:41;104.90;;;21.53;;
20497;SDS011;10407;53.238;10.448;2023-02-16T03:19:15;108.03;;;22.17;;
20497;SDS011;10407;53.238;10.448;2023-02-16T03:22:02;103.60;;;20.70;;
20497;SDS011;10407;53.238;10.448;2023-02-16T03:24:48;107.73;;;21.37;;
20497;SDS011;10407;53.238;10.448;2023-02-16T03:27:35;109.97;;;21.30;;
20497;SDS011;10407;53.238;10.448;2023-02-16T03:30:22;107.73;;;20.93;;
20497;SDS011;10407;53.238;10.448;2023-02-16T03:32:51;116.47;;;22.20;;
20497;SDS011;10407;53.238;10.448;2023-02-16T03:35:19;104.63;;;20.67;;
20497;SDS011;10407;53.238;10.448;2023-02-16T03:37:47;103.07;;;20.90;;
20497;SDS011;10407;53.238;10.448;2023-02-16T03:40:15;100.57;;;20.20;;
20497;SDS011;10407;53.238;10.448;2023-02-16T03:42:58;107.57;;;20.57;;
20497;SDS011;10407;53.238;10.448;2023-02-16T03:45:23;108.30;;;21.40;;
20497;SDS011;10407;53.238;10.448;2023-02-16T03:47:50;105.00;;;22.43;;
20497;SDS011;10407;53.238;10.448;2023-02-16T03:50:19;107.87;;;21.60;;
20497;SDS011;10407;53.238;10.448;2023-02-16T03:52:47;106.17;;;21.07;;
20497;SDS011;10407;53.238;10.448;2023-02-16T03:55:15;108.27;;;22.77;;
20497;SDS011;10407;53.238;10.448;2023-02-16T03:57:42;107.63;;;23.10;;
20497;SDS011;10407;53.238;10.448;2023-02-16T04:00:10;112.40;;;24.40;;
20497;SDS011;10407;53.238;10.448;2023-02-16T04:02:38;107.03;;;23.63;;
20497;SDS011;10407;53.238;10.448;2023-02-16T04:05:06;115.50;;;23.43;;
20497;SDS011;10407;53.238;10.448;2023-02-16T04:07:33;107.70;;;23.30;;
20497;SDS011;10407;53.238;10.448;2023-02-16T04:10:01;107.87;;;22.33;;
20497;SDS011;10407;53.238;10.448;2023-02-16T04:12:29;109.17;;;21.60;;
20497;SDS011;10407;53.238;10.448;2023-02-16T04:15:03;112.37;;;24.37;;
20497;SDS011;10407;53.238;10.448;2023-02-16T04:17:32;110.10;;;22.73;;
20497;SDS011;10407;53.238;10.448;2023-02-16T04:20:00;112.50;;;23.30;;
20497;SDS011;10407;53.238;10.448;2023-02-16T04:22:28;109.93;;;22.93;;
20497;SDS011;10407;53.238;10.448;2023-02-16T04:24:55;108.60;;;22.50;;
20497;SDS011;10407;53.238;10.448;2023-02-16T04:27:23;107.17;;;21.67;;
20497;SDS011;10407;53.238;10.448;2023-02-16T04:29:50;108.10;;;24.20;;
20497;SDS011;10407;53.238;10.448;2023-02-16T04:32:18;104.17;;;20.77;;
20497;SDS011;10407;53.238;10.448;2023-02-16T04:34:45;109.57;;;22.83;;
20497;SDS011;10407;53.238;10.448;2023-02-16T04:37:13;107.33;;;21.53;;
20497;SDS011;10407;53.238;10.448;2023-02-16T04:39:40;109.03;;;22.20;;
20497;SDS011;10407;53.238;10.448;2023-02-16T04:42:08;106.53;;;22.37;;
20497;SDS011;10407;53.238;10.448;2023-02-16T04:44:35;108.67;;;24.20;;
20497;SDS011;10407;53.238;10.448;2023-02-16T04:47:03;109.30;;;22.37;;
20497;SDS011;10407;53.238;10.448;2023-02-16T04:49:31;107.47;;;20.90;;
20497;SDS011;10407;53.238;10.448;2023-02-16T04:51:58;110.53;;;21.57;;
20497;SDS011;10407;53.238;10.448;2023-02-16T04:54:28;107.70;;;20.97;;
20497;SDS011;10407;53.238;10.448;2023-02-16T04:56:56;110.77;;;22.80;;
20497;SDS011;10407;53.238;10.448;2023-02-16T04:59:24;110.13;;;22.27;;
20497;SDS011;10407;53.238;10.448;2023-02-16T05:01:52;108.13;;;21.90;;
20497;SDS011;10407;53.238;10.448;2023-02-16T05:04:20;108.83;;;21.93;;
20497;SDS011;10407;53.238;10.448;2023-02-16T05:06:47;108.00;;;21.63;;
20497;SDS011;10407;53.238;10.448;2023-02-16T05:09:15;118.27;;;24.47;;
20497;SDS011;10407;53.238;10.448;2023-02-16T05:11:42;105.37;;;22.07;;
20497;SDS011;10407;53.238;10.448;2023-02-16T05:14:29;104.07;;;21.90;;
20497;SDS011;10407;53.238;10.448;2023-02-16T05:19:41;109.07;;;22.17;;
20497;SDS011;10407;53.238;10.448;2023-02-16T05:22:10;107.27;;;21.70;;
20497;SDS011;10407;53.238;10.448;2023-02-16T05:24:38;113.80;;;24.53;;
20497;SDS011;10407;53.238;10.448;2023-02-16T05:27:07;110.70;;;24.40;;
20497;SDS011;10407;53.238;10.448;2023-02-16T05:29:37;111.30;;;22.87;;
20497;SDS011;10407;53.238;10.448;2023-02-16T05:32:04;107.77;;;22.30;;
20497;SDS011;10407;53.238;10.448;2023-02-16T05:34:32;104.87;;;23.10;;
20497;SDS011;10407;53.238;10.448;2023-02-16T05:37:00;107.87;;;22.20;;
20497;SDS011;10407;53.238;10.448;2023-02-16T05:39:27;116.23;;;24.57;;
20497;SDS011;10407;53.238;10.448;2023-02-16T05:41:55;111.27;;;24.83;;
20497;SDS011;10407;53.238;10.448;2023-02-16T05:44:23;112.60;;;23.57;;
20497;SDS011;10407;53.238;10.448;2023-02-16T05:46:50;111.27;;;23.40;;
20497;SDS011;10407;53.238;10.448;2023-02-16T05:49:18;114.40;;;25.97;;
20497;SDS011;10407;53.238;10.448;2023-02-16T05:51:46;117.90;;;24.77;;
20497;SDS011;10407;53.238;10.448;2023-02-16T05:54:13;115.93;;;26.67;;
20497;SDS011;10407;53.238;10.448;2023-02-16T05:56:45;116.10;;;25.23;;
20497;SDS011;10407;53.238;10.448;2023-02-16T05:59:14;118.07;;;24.90;;
20497;SDS011;10407;53.238;10.448;2023-02-16T06:01:42;116.33;;;25.37;;
20497;SDS011;10407;53.238;10.448;2023-02-16T06:04:12;120.00;;;25.07;;
20497;SDS011;10407;53.238;10.448;2023-02-16T06:06:40;110.43;;;25.07;;
20497;SDS011;10407;53.238;10.448;2023-02-16T06:09:08;116.03;;;24.80;;
20497;SDS011;10407;53.238;10.448;2023-02-16T06:11:36;110.60;;;24.27;;
20497;SDS011;10407;53.238;10.448;2023-02-16T06:14:09;112.47;;;25.03;;
20497;SDS011;10407;53.238;10.448;2023-02-16T06:16:38;110.83;;;24.23;;
20497;SDS011;10407;53.238;10.448;2023-02-16T06:19:07;113.37;;;25.23;;
20497;SDS011;10407;53.238;10.448;2023-02-16T06:21:35;114.67;;;23.90;;
20497;SDS011;10407;53.238;10.448;2023-02-16T06:24:04;112.93;;;24.40;;
20497;SDS011;10407;53.238;10.448;2023-02-16T06:26:32;118.40;;;26.33;;
20497;SDS011;10407;53.238;10.448;2023-02-16T06:29:00;127.10;;;26.37;;
20497;SDS011;10407;53.238;10.448;2023-02-16T06:31:28;116.73;;;24.63;;
20497;SDS011;10407;53.238;10.448;2023-02-16T06:33:55;112.93;;;27.50;;
20497;SDS011;10407;53.238;10.448;2023-02-16T06:36:23;116.90;;;27.63;;
20497;SDS011;10407;53.238;10.448;2023-02-16T06:38:51;121.53;;;26.60;;
20497;SDS011;10407;53.238;10.448;2023-02-16T06:41:18;114.37;;;26.20;;
20497;SDS011;10407;53.238;10.448;2023-02-16T06:44:04;119.80;;;28.10;;
20497;SDS011;10407;53.238;10.448;2023-02-16T06:46:33;120.63;;;27.93;;
20497;SDS011;10407;53.238;10.448;2023-02-16T06:49:01;112.70;;;26.40;;
20497;SDS011;10407;53.238;10.448;2023-02-16T06:51:28;119.00;;;26.50;;
20497;SDS011;10407;53.238;10.448;2023-02-16T06:53:56;119.70;;;28.30;;
20497;SDS011;10407;53.238;10.448;2023-02-16T06:56:24;113.13;;;25.37;;
20497;SDS011;10407;53.238;10.448;2023-02-16T06:58:52;123.60;;;28.30;;
20497;SDS011;10407;53.238;10.448;2023-02-16T07:01:20;116.83;;;26.90;;
20497;SDS011;10407;53.238;10.448;2023-02-16T07:03:51;115.90;;;27.13;;
20497;SDS011;10407;53.238;10.448;2023-02-16T07:06:20;125.47;;;31.10;;
20497;SDS011;10407;53.238;10.448;2023-02-16T07:08:50;121.07;;;28.70;;
20497;SDS011;10407;53.238;10.448;2023-02-16T07:11:18;117.97;;;28.50;;
20497;SDS011;10407;53.238;10.448;2023-02-16T07:13:46;118.90;;;27.00;;
20497;SDS011;10407;53.238;10.448;2023-02-16T07:16:14;123.03;;;27.83;;
20497;SDS011;10407;53.238;10.448;2023-02-16T07:18:42;115.37;;;26.77;;
20497;SDS011;10407;53.238;10.448;2023-02-16T07:21:11;111.43;;;25.33;;
20497;SDS011;10407;53.238;10.448;2023-02-16T07:23:39;119.93;;;29.30;;
20497;SDS011;10407;53.238;10.448;2023-02-16T07:26:06;121.53;;;28.63;;
20497;SDS011;10407;53.238;10.448;2023-02-16T07:28:34;119.37;;;27.77;;
20497;SDS011;10407;53.238;10.448;2023-02-16T07:31:10;122.33;;;27.80;;
20497;SDS011;10407;53.238;10.448;2023-02-16T07:33:35;118.77;;;28.17;;
20497;SDS011;10407;53.238;10.448;2023-02-16T07:36:03;114.27;;;26.17;;
20497;SDS011;10407;53.238;10.448;2023-02-16T07:38:32;118.50;;;28.17;;
20497;SDS011;10407;53.238;10.448;2023-02-16T07:40:59;112.93;;;25.83;;
20497;SDS011;10407;53.238;10.448;2023-02-16T07:43:27;118.37;;;27.13;;
20497;SDS011;10407;53.238;10.448;2023-02-16T07:45:55;119.07;;;27.87;;
20497;SDS011;10407;53.238;10.448;2023-02-16T07:48:22;115.47;;;27.47;;
20497;SDS011;10407;53.238;10.448;2023-02-16T07:50:50;112.47;;;26.60;;
20497;SDS011;10407;53.238;10.448;2023-02-16T07:53:18;121.20;;;27.70;;
20497;SDS011;10407;53.238;10.448;2023-02-16T07:55:45;117.37;;;26.53;;
20497;SDS011;10407;53.238;10.448;2023-02-16T07:58:13;114.50;;;26.60;;
20497;SDS011;10407;53.238;10.448;2023-02-16T08:00:43;113.60;;;26.17;;
20497;SDS011;10407;53.238;10.448;2023-02-16T08:03:10;123.00;;;27.03;;
20497;SDS011;10407;53.238;10.448;2023-02-16T08:05:38;116.60;;;26.40;;
20497;SDS011;10407;53.238;10.448;2023-02-16T08:08:05;116.60;;;27.17;;
20497;SDS011;10407;53.238;10.448;2023-02-16T08:10:33;114.90;;;27.97;;
20497;SDS011;10407;53.238;10.448;2023-02-16T08:13:00;118.17;;;28.33;;
20497;SDS011;10407;53.238;10.448;2023-02-16T08:15:28;117.30;;;27.50;;
20497;SDS011;10407;53.238;10.448;2023-02-16T08:17:55;113.37;;;25.57;;
20497;SDS011;10407;53.238;10.448;2023-02-16T08:20:23;113.47;;;28.13;;
20497;SDS011;10407;53.238;10.448;2023-02-16T08:22:52;118.13;;;28.23;;
20497;SDS011;10407;53.238;10.448;2023-02-16T08:25:20;116.90;;;27.43;;
20497;SDS011;10407;53.238;10.448;2023-02-16T08:27:48;114.77;;;25.83;;
20497;SDS011;10407;53.238;10.448;2023-02-16T08:30:15;127.93;;;28.03;;
20497;SDS011;10407;53.238;10.448;2023-02-16T08:32:45;118.90;;;27.37;;
20497;SDS011;10407;53.238;10.448;2023-02-16T08:35:14;113.10;;;26.67;;
20497;SDS011;10407;53.238;10.448;2023-02-16T08:37:42;113.80;;;25.77;;
20497;SDS011;10407;53.238;10.448;2023-02-16T08:40:10;117.37;;;28.07;;
20497;SDS011;10407;53.238;10.448;2023-02-16T08:42:38;117.63;;;27.53;;
20497;SDS011;10407;53.238;10.448;2023-02-16T08:45:06;112.20;;;26.93;;
20497;SDS011;10407;53.238;10.448;2023-02-16T08:47:35;118.10;;;27.50;;
20497;SDS011;10407;53.238;10.448;2023-02-16T08:50:03;121.47;;;28.37;;
20497;SDS011;10407;53.238;10.448;2023-02-16T08:52:32;117.00;;;28.60;;
20497;SDS011;10407;53.238;10.448;2023-02-16T08:55:00;120.13;;;29.67;;
20497;SDS011;10407;53.238;10.448;2023-02-16T08:57:28;116.63;;;28.33;;
20497;SDS011;10407;53.238;10.448;2023-02-16T08:59:57;116.23;;;26.50;;
20497;SDS011;10407;53.238;10.448;2023-02-16T09:02:43;116.03;;;27.60;;
20497;SDS011;10407;53.238;10.448;2023-02-16T09:05:10;123.27;;;29.67;;
20497;SDS011;10407;53.238;10.448;2023-02-16T09:07:38;121.90;;;25.10;;
20497;SDS011;10407;53.238;10.448;2023-02-16T09:10:06;115.37;;;27.57;;
20497;SDS011;10407;53.238;10.448;2023-02-16T09:12:34;114.40;;;25.63;;
20497;SDS011;10407;53.238;10.448;2023-02-16T09:15:01;118.97;;;28.10;;
20497;SDS011;10407;53.238;10.448;2023-02-16T09:17:29;121.13;;;28.23;;
20497;SDS011;10407;53.238;10.448;2023-02-16T09:19:57;118.20;;;28.47;;
20497;SDS011;10407;53.238;10.448;2023-02-16T09:22:24;112.13;;;26.30;;
20497;SDS011;10407;53.238;10.448;2023-02-16T09:24:52;129.40;;;28.77;;
20497;SDS011;10407;53.238;10.448;2023-02-16T09:27:19;111.87;;;25.87;;
20497;SDS011;10407;53.238;10.448;2023-02-16T09:29:47;117.80;;;29.60;;
20497;SDS011;10407;53.238;10.448;2023-02-16T09:32:14;118.30;;;28.80;;
20497;SDS011;10407;53.238;10.448;2023-02-16T09:34:42;115.00;;;26.57;;
20497;SDS011;10407;53.238;10.448;2023-02-16T09:37:10;113.20;;;27.20;;
20497;SDS011;10407;53.238;10.448;2023-02-16T09:39:39;121.83;;;28.13;;
20497;SDS011;10407;53.238;10.448;2023-02-16T09:45:02;114.43;;;26.40;;
20497;SDS011;10407;53.238;10.448;2023-02-16T09:47:37;116.67;;;27.50;;
20497;SDS011;10407;53.238;10.448;2023-02-16T09:50:21;126.50;;;29.87;;
20497;SDS011;10407;53.238;10.448;2023-02-16T09:52:54;113.67;;;24.90;;
20497;SDS011;10407;53.238;10.448;2023-02-16T09:56:34;129.60;;;28.70;;
20497;SDS011;10407;53.238;10.448;2023-02-16T09:58:28;120.73;;;26.50;;
20497;SDS011;10407;53.238;10.448;2023-02-16T10:01:06;114.17;;;24.57;;
20497;SDS011;10407;53.238;10.448;2023-02-16T10:03:51;116.00;;;28.67;;
20497;SDS011;10407;53.238;10.448;2023-02-16T10:09:10;125.30;;;28.90;;
20497;SDS011;10407;53.238;10.448;2023-02-16T10:11:48;119.10;;;26.60;;
20497;SDS011;10407;53.238;10.448;2023-02-16T10:19:56;111.10;;;26.80;;
20497;SDS011;10407;53.238;10.448;2023-02-16T10:22:33;117.13;;;27.47;;
20497;SDS011;10407;53.238;10.448;2023-02-16T10:27:39;112.67;;;27.23;;
20497;SDS011;10407;53.238;10.448;2023-02-16T10:30:11;111.97;;;25.30;;
20497;SDS011;10407;53.238;10.448;2023-02-16T10:35:16;107.57;;;23.60;;
20497;SDS011;10407;53.238;10.448;2023-02-16T10:38:03;114.67;;;26.10;;
20497;SDS011;10407;53.238;10.448;2023-02-16T10:41:04;110.17;;;24.30;;
20497;SDS011;10407;53.238;10.448;2023-02-16T10:46:03;118.40;;;27.00;;
20497;SDS011;10407;53.238;10.448;2023-02-16T10:48:32;113.93;;;27.00;;
20497;SDS011;10407;53.238;10.448;2023-02-16T10:53:38;111.40;;;26.23;;
20497;SDS011;10407;53.238;10.448;2023-02-16T10:56:59;115.53;;;26.27;;
20497;SDS011;10407;53.238;10.448;2023-02-16T10:59:02;112.90;;;24.17;;
20497;SDS011;10407;53.238;10.448;2023-02-16T11:01:50;114.73;;;26.50;;
20497;SDS011;10407;53.238;10.448;2023-02-16T11:04:48;116.00;;;27.33;;
20497;SDS011;10407;53.238;10.448;2023-02-16T11:09:39;114.93;;;25.97;;
20497;SDS011;10407;53.238;10.448;2023-02-16T11:17:31;108.00;;;25.10;;
20497;SDS011;10407;53.238;10.448;2023-02-16T11:20:02;115.37;;;26.23;;
20497;SDS011;10407;53.238;10.448;2023-02-16T11:22:33;109.03;;;24.13;;
20497;SDS011;10407;53.238;10.448;2023-02-16T11:27:49;116.70;;;27.87;;
20497;SDS011;10407;53.238;10.448;2023-02-16T11:30:28;114.47;;;27.00;;
20497;SDS011;10407;53.238;10.448;2023-02-16T11:33:03;116.77;;;23.60;;
20497;SDS011;10407;53.238;10.448;2023-02-16T11:35:39;110.90;;;24.90;;
20497;SDS011;10407;53.238;10.448;2023-02-16T11:38:03;110.50;;;26.73;;
20497;SDS011;10407;53.238;10.448;2023-02-16T11:40:31;112.23;;;26.47;;
20497;SDS011;10407;53.238;10.448;2023-02-16T11:43:00;112.03;;;25.17;;
20497;SDS011;10407;53.238;10.448;2023-02-16T11:45:29;103.80;;;22.23;;
20497;SDS011;10407;53.238;10.448;2023-02-16T11:48:00;112.23;;;24.57;;
20497;SDS011;10407;53.238;10.448;2023-02-16T11:50:30;111.87;;;24.90;;
20497;SDS011;10407;53.238;10.448;2023-02-16T11:55:41;111.67;;;23.40;;
20497;SDS011;10407;53.238;10.448;2023-02-16T11:58:18;116.17;;;25.13;;
20497;SDS011;10407;53.238;10.448;2023-02-16T12:03:47;118.53;;;26.00;;
20497;SDS011;10407;53.238;10.448;2023-02-16T12:06:28;113.90;;;24.00;;
20497;SDS011;10407;53.238;10.448;2023-02-16T12:09:18;116.07;;;25.97;;
20497;SDS011;10407;53.238;10.448;2023-02-16T12:14:33;113.70;;;26.97;;
20497;SDS011;10407;53.238;10.448;2023-02-16T12:19:47;114.20;;;24.50;;
20497;SDS011;10407;53.238;10.448;2023-02-16T12:27:34;110.10;;;24.63;;
20497;SDS011;10407;53.238;10.448;2023-02-16T12:30:24;116.00;;;25.60;;
20497;SDS011;10407;53.238;10.448;2023-02-16T12:32:54;113.00;;;25.77;;
20497;SDS011;10407;53.238;10.448;2023-02-16T12:35:32;108.43;;;24.47;;
20497;SDS011;10407;53.238;10.448;2023-02-16T12:38:30;111.30;;;23.50;;
20497;SDS011;10407;53.238;10.448;2023-02-16T12:41:01;115.43;;;25.70;;
20497;SDS011;10407;53.238;10.448;2023-02-16T12:43:45;114.87;;;26.83;;
20497;SDS011;10407;53.238;10.448;2023-02-16T12:49:20;113.60;;;26.80;;
20497;SDS011;10407;53.238;10.448;2023-02-16T12:51:54;112.47;;;27.10;;
20497;SDS011;10407;53.238;10.448;2023-02-16T12:54:28;116.67;;;26.57;;
20497;SDS011;10407;53.238;10.448;2023-02-16T12:57:07;112.70;;;26.60;;
20497;SDS011;10407;53.238;10.448;2023-02-16T13:02:17;112.77;;;24.97;;
20497;SDS011;10407;53.238;10.448;2023-02-16T13:04:55;109.80;;;25.50;;
20497;SDS011;10407;53.238;10.448;2023-02-16T13:07:31;118.83;;;28.07;;
20497;SDS011;10407;53.238;10.448;2023-02-16T13:10:17;112.67;;;26.27;;
20497;SDS011;10407;53.238;10.448;2023-02-16T13:12:58;111.33;;;24.10;;
20497;SDS011;10407;53.238;10.448;2023-02-16T13:18:26;119.00;;;26.07;;
20497;SDS011;10407;53.238;10.448;2023-02-16T13:20:57;116.53;;;28.23;;
20497;SDS011;10407;53.238;10.448;2023-02-16T13:41:08;110.43;;;24.80;;
20497;SDS011;10407;53.238;10.448;2023-02-16T13:43:33;109.50;;;25.30;;
20497;SDS011;10407;53.238;10.448;2023-02-16T13:46:05;113.20;;;26.07;;
20497;SDS011;10407;53.238;10.448;2023-02-16T13:48:39;113.60;;;25.33;;
20497;SDS011;10407;53.238;10.448;2023-02-16T13:51:19;113.30;;;25.50;;
20497;SDS011;10407;53.238;10.448;2023-02-16T13:53:55;125.90;;;27.97;;
20497;SDS011;10407;53.238;10.448;2023-02-16T13:58:58;121.40;;;27.63;;
20497;SDS011;10407;53.238;10.448;2023-02-16T14:01:47;116.87;;;27.50;;
20497;SDS011;10407;53.238;10.448;2023-02-16T14:09:35;117.20;;;28.60;;
20497;SDS011;10407;53.238;10.448;2023-02-16T14:12:02;124.57;;;29.10;;
20497;SDS011;10407;53.238;10.448;2023-02-16T14:14:33;117.97;;;27.57;;
20497;SDS011;10407;53.238;10.448;2023-02-16T14:19:55;115.20;;;26.30;;
20497;SDS011;10407;53.238;10.448;2023-02-16T14:35:43;116.03;;;26.57;;
20497;SDS011;10407;53.238;10.448;2023-02-16T14:38:49;111.03;;;26.60;;
20497;SDS011;10407;53.238;10.448;2023-02-16T14:41:03;116.87;;;26.97;;
20497;SDS011;10407;53.238;10.448;2023-02-16T14:43:43;116.57;;;28.60;;
20497;SDS011;10407;53.238;10.448;2023-02-16T14:46:29;120.00;;;28.87;;
20497;SDS011;10407;53.238;10.448;2023-02-16T14:52:18;111.73;;;24.50;;
20497;SDS011;10407;53.238;10.448;2023-02-16T15:00:35;122.00;;;28.30;;
20497;SDS011;10407;53.238;10.448;2023-02-16T15:03:17;113.30;;;26.30;;
20497;SDS011;10407;53.238;10.448;2023-02-16T15:05:56;115.67;;;25.63;;
20497;SDS011;10407;53.238;10.448;2023-02-16T15:08:27;113.97;;;25.70;;
20497;SDS011;10407;53.238;10.448;2023-02-16T15:11:14;115.67;;;27.00;;
20497;SDS011;10407;53.238;10.448;2023-02-16T15:13:44;114.70;;;26.37;;
20497;SDS011;10407;53.238;10.448;2023-02-16T15:16:14;112.97;;;26.57;;
20497;SDS011;10407;53.238;10.448;2023-02-16T15:18:43;111.57;;;26.70;;
20497;SDS011;10407;53.238;10.448;2023-02-16T15:21:24;112.77;;;26.00;;
20497;SDS011;10407;53.238;10.448;2023-02-16T15:23:51;118.27;;;27.93;;
20497;SDS011;10407;53.238;10.448;2023-02-16T15:26:22;116.67;;;28.27;;
20497;SDS011;10407;53.238;10.448;2023-02-16T15:28:57;118.77;;;27.07;;
20497;SDS011;10407;53.238;10.448;2023-02-16T15:31:24;114.43;;;26.03;;
20497;SDS011;10407;53.238;10.448;2023-02-16T15:33:54;113.77;;;24.70;;
20497;SDS011;10407;53.238;10.448;2023-02-16T15:36:31;127.73;;;27.07;;
20497;SDS011;10407;53.238;10.448;2023-02-16T15:39:12;109.67;;;24.90;;
20497;SDS011;10407;53.238;10.448;2023-02-16T15:41:35;114.90;;;26.67;;
20497;SDS011;10407;53.238;10.448;2023-02-16T15:44:05;112.80;;;25.40;;
20497;SDS011;10407;53.238;10.448;2023-02-16T15:46:40;120.60;;;26.53;;
20497;SDS011;10407;53.238;10.448;2023-02-16T15:49:12;112.40;;;25.70;;
20497;SDS011;10407;53.238;10.448;2023-02-16T15:51:40;122.40;;;28.90;;
20497;SDS011;10407;53.238;10.448;2023-02-16T15:54:17;115.57;;;27.03;;
20497;SDS011;10407;53.238;10.448;2023-02-16T15:56:56;116.53;;;28.20;;
20497;SDS011;10407;53.238;10.448;2023-02-16T16:01:57;112.97;;;25.10;;
20497;SDS011;10407;53.238;10.448;2023-02-16T16:04:27;116.27;;;30.33;;
20497;SDS011;10407;53.238;10.448;2023-02-16T16:06:56;112.37;;;26.00;;
20497;SDS011;10407;53.238;10.448;2023-02-16T16:09:26;116.33;;;25.13;;
20497;SDS011;10407;53.238;10.448;2023-02-16T16:11:59;116.77;;;26.00;;
20497;SDS011;10407;53.238;10.448;2023-02-16T16:14:29;116.17;;;27.70;;
20497;SDS011;10407;53.238;10.448;2023-02-16T16:17:02;114.00;;;25.60;;
20497;SDS011;10407;53.238;10.448;2023-02-16T16:22:01;111.57;;;24.77;;
20497;SDS011;10407;53.238;10.448;2023-02-16T16:24:35;115.63;;;28.87;;
20497;SDS011;10407;53.238;10.448;2023-02-16T16:27:13;116.03;;;27.70;;
20497;SDS011;10407;53.238;10.448;2023-02-16T16:29:38;111.00;;;26.27;;
20497;SDS011;10407;53.238;10.448;2023-02-16T16:32:18;114.37;;;27.57;;
20497;SDS011;10407;53.238;10.448;2023-02-16T16:34:47;128.20;;;29.90;;
20497;SDS011;10407;53.238;10.448;2023-02-16T16:37:28;116.20;;;28.10;;
20497;SDS011;10407;53.238;10.448;2023-02-16T16:40:13;121.17;;;29.80;;
20497;SDS011;10407;53.238;10.448;2023-02-16T16:45:37;120.27;;;29.30;;
20497;SDS011;10407;53.238;10.448;2023-02-16T16:48:24;119.27;;;30.10;;